Time;durP1;ratioP1;P1;durP2;ratioP2;P2;SDS_P1;SDS_P2;PMS_P1;PMS_P2;Temp;Humidity;BMP_temperature;BMP_pressure;BME280_temperature;BME280_humidity;BME280_pressure;Samples;Min_cycle;Max_cycle;Signal;HPM_P1;HPM_P2
2022/11/18 00:00:53;;;;;;;6.15;4.00;;;;;;;;;;5032313;28;20057;-79
2022/11/18 00:03:19;;;;;;;6.47;3.95;;;;;;;;;;5032084;28;20053;-78
2022/11/18 00:05:53;;;;;;;6.07;3.92;;;;;;;;;;5029372;28;20044;-78
2022/11/18 00:08:19;;;;;;;8.50;3.83;;;;;;;;;;5050530;28;20045;-78
2022/11/18 00:10:45;;;;;;;5.30;3.65;;;;;;;;;;5031959;28;20049;-78
2022/11/18 00:16:00;;;;;;;7.55;4.53;;;;;;;;;;5048626;28;20045;-78
2022/11/18 00:18:26;;;;;;;6.43;4.28;;;;;;;;;;5048259;28;20489;-78
2022/11/18 00:20:52;;;;;;;8.05;4.13;;;;;;;;;;5033056;28;20053;-78
2022/11/18 00:23:18;;;;;;;9.52;4.50;;;;;;;;;;5033121;28;20390;-78
2022/11/18 00:25:44;;;;;;;6.45;4.20;;;;;;;;;;5049928;28;20099;-78
2022/11/18 00:28:10;;;;;;;9.02;4.22;;;;;;;;;;5050759;28;20052;-78
2022/11/18 00:30:36;;;;;;;5.95;3.97;;;;;;;;;;5048614;28;20041;-79
2022/11/18 00:33:02;;;;;;;5.35;4.15;;;;;;;;;;5034130;28;20408;-78
2022/11/18 00:35:31;;;;;;;5.25;4.00;;;;;;;;;;5027395;28;20049;-78
2022/11/18 00:37:57;;;;;;;6.60;4.28;;;;;;;;;;5034589;28;20059;-78
2022/11/18 00:40:24;;;;;;;7.70;4.10;;;;;;;;;;5047772;28;20396;-78
2022/11/18 00:42:50;;;;;;;7.38;4.22;;;;;;;;;;5049912;28;20053;-78
2022/11/18 00:45:17;;;;;;;5.85;4.45;;;;;;;;;;5033617;28;20048;-79
2022/11/18 00:47:43;;;;;;;5.93;4.00;;;;;;;;;;5051318;28;20048;-79
2022/11/18 00:50:09;;;;;;;6.15;4.32;;;;;;;;;;5048980;28;20041;-78
2022/11/18 00:52:38;;;;;;;5.60;4.45;;;;;;;;;;5042966;28;20037;-78
2022/11/18 00:55:04;;;;;;;6.65;4.40;;;;;;;;;;5029976;28;20045;-78
2022/11/18 00:57:30;;;;;;;5.50;4.32;;;;;;;;;;5067591;28;20136;-79
2022/11/18 00:59:56;;;;;;;5.40;4.43;;;;;;;;;;5050220;28;20128;-78
2022/11/18 01:02:22;;;;;;;7.20;4.45;;;;;;;;;;5031298;28;20480;-78
2022/11/18 01:04:48;;;;;;;5.15;4.47;;;;;;;;;;5042036;28;20048;-78
2022/11/18 01:07:14;;;;;;;8.45;5.15;;;;;;;;;;5033121;28;20424;-78
2022/11/18 01:09:40;;;;;;;5.93;4.35;;;;;;;;;;5042119;28;20150;-78
2022/11/18 01:14:51;;;;;;;7.32;4.60;;;;;;;;;;5047660;28;20052;-79
2022/11/18 01:17:20;;;;;;;7.72;4.57;;;;;;;;;;5049410;28;20053;-78
2022/11/18 01:19:46;;;;;;;9.63;4.80;;;;;;;;;;5032091;28;20041;-78
2022/11/18 01:22:12;;;;;;;6.32;5.00;;;;;;;;;;5049912;28;20041;-78
2022/11/18 01:24:38;;;;;;;8.02;4.95;;;;;;;;;;5065024;28;20056;-79
2022/11/18 01:27:04;;;;;;;6.72;5.03;;;;;;;;;;5062513;28;20477;-79
2022/11/18 01:29:30;;;;;;;8.70;5.25;;;;;;;;;;5032887;28;20041;-78
2022/11/18 01:31:56;;;;;;;8.38;4.78;;;;;;;;;;5029936;28;20040;-78
2022/11/18 01:34:22;;;;;;;6.30;5.15;;;;;;;;;;5049706;28;20560;-78
2022/11/18 01:36:48;;;;;;;6.40;4.78;;;;;;;;;;5029002;28;20171;-79
2022/11/18 01:39:14;;;;;;;8.77;4.70;;;;;;;;;;5029287;28;20128;-78
2022/11/18 01:41:40;;;;;;;9.88;5.10;;;;;;;;;;5043341;28;20153;-79
2022/11/18 01:44:26;;;;;;;10.63;5.57;;;;;;;;;;5044999;28;20037;-78
2022/11/18 01:46:52;;;;;;;7.55;5.47;;;;;;;;;;5045172;28;20542;-79
2022/11/18 01:49:18;;;;;;;8.40;5.60;;;;;;;;;;5025514;28;20048;-79
2022/11/18 01:51:55;;;;;;;9.55;5.55;;;;;;;;;;5036891;28;20048;-79
2022/11/18 01:54:27;;;;;;;9.00;5.53;;;;;;;;;;5059914;28;20547;-78
2022/11/18 01:56:56;;;;;;;9.63;6.05;;;;;;;;;;5065787;28;20041;-78
2022/11/18 01:59:23;;;;;;;8.65;6.05;;;;;;;;;;5046968;28;20053;-78
2022/11/18 02:01:49;;;;;;;9.88;6.28;;;;;;;;;;5031791;28;20045;-79
2022/11/18 02:04:15;;;;;;;9.18;6.20;;;;;;;;;;5023891;28;20044;-78
2022/11/18 02:06:43;;;;;;;9.10;6.13;;;;;;;;;;5048056;28;20124;-78
2022/11/18 02:09:09;;;;;;;9.63;5.85;;;;;;;;;;5047655;28;20543;-78
2022/11/18 02:11:52;;;;;;;10.18;6.20;;;;;;;;;;5049273;28;20044;-79
2022/11/18 02:14:19;;;;;;;8.65;6.93;;;;;;;;;;5048330;28;20159;-78
2022/11/18 02:17:01;;;;;;;10.45;6.90;;;;;;;;;;5063831;28;20052;-78
2022/11/18 02:19:42;;;;;;;11.02;7.38;;;;;;;;;;5048563;28;20057;-79
2022/11/18 02:22:08;;;;;;;9.30;7.18;;;;;;;;;;5045369;28;20051;-78
2022/11/18 02:24:51;;;;;;;11.30;7.68;;;;;;;;;;5029355;28;20500;-78
2022/11/18 02:27:20;;;;;;;10.70;7.85;;;;;;;;;;5047915;28;20551;-78
2022/11/18 02:29:51;;;;;;;13.23;9.00;;;;;;;;;;5048336;28;20562;-78
2022/11/18 02:32:22;;;;;;;10.80;8.43;;;;;;;;;;5059025;28;20040;-78
2022/11/18 02:34:52;;;;;;;13.15;9.73;;;;;;;;;;5029872;28;20053;-78
2022/11/18 02:37:24;;;;;;;11.48;9.82;;;;;;;;;;5064431;28;20057;-78
2022/11/18 02:39:57;;;;;;;16.85;11.57;;;;;;;;;;5061926;28;20045;-78
2022/11/18 02:42:25;;;;;;;14.55;11.85;;;;;;;;;;5064579;28;20056;-78
2022/11/18 02:44:57;;;;;;;16.92;12.15;;;;;;;;;;5029843;28;20045;-79
2022/11/18 02:47:24;;;;;;;17.80;12.45;;;;;;;;;;5048518;28;20045;-78
2022/11/18 02:49:59;;;;;;;15.85;13.52;;;;;;;;;;5030122;28;20508;-78
2022/11/18 02:52:27;;;;;;;16.02;12.75;;;;;;;;;;5046223;28;20099;-78
2022/11/18 02:54:54;;;;;;;15.43;12.00;;;;;;;;;;5025463;28;20045;-78
2022/11/18 02:57:20;;;;;;;16.95;13.32;;;;;;;;;;5048660;28;20044;-78
2022/11/18 02:59:47;;;;;;;16.63;13.95;;;;;;;;;;5031651;28;20443;-78
2022/11/18 03:02:17;;;;;;;16.67;14.30;;;;;;;;;;5026548;28;20107;-78
2022/11/18 03:04:45;;;;;;;19.02;14.68;;;;;;;;;;5042082;28;20601;-78
2022/11/18 03:07:15;;;;;;;18.65;15.23;;;;;;;;;;5029188;28;20374;-78
2022/11/18 03:09:46;;;;;;;18.15;16.15;;;;;;;;;;5046803;28;20049;-78
2022/11/18 03:12:30;;;;;;;17.75;15.13;;;;;;;;;;5046151;28;20056;-78
2022/11/18 03:15:01;;;;;;;17.65;15.15;;;;;;;;;;5043704;28;20033;-80
2022/11/18 03:17:34;;;;;;;20.73;16.30;;;;;;;;;;5046804;28;20175;-78
2022/11/18 03:20:07;;;;;;;19.65;17.33;;;;;;;;;;5041504;28;20477;-78
2022/11/18 03:22:42;;;;;;;24.08;17.83;;;;;;;;;;5048245;28;20049;-78
2022/11/18 03:25:11;;;;;;;21.75;17.33;;;;;;;;;;5030210;28;20049;-78
2022/11/18 03:27:49;;;;;;;20.10;16.73;;;;;;;;;;5043098;28;20062;-79
2022/11/18 03:30:18;;;;;;;22.20;18.10;;;;;;;;;;5028332;28;20056;-78
2022/11/18 03:32:47;;;;;;;21.67;18.58;;;;;;;;;;5046993;28;20078;-79
2022/11/18 03:35:16;;;;;;;25.08;19.60;;;;;;;;;;5043376;28;20044;-78
2022/11/18 03:37:43;;;;;;;26.35;19.67;;;;;;;;;;5043276;28;20088;-78
2022/11/18 03:40:14;;;;;;;25.70;20.38;;;;;;;;;;5031793;28;20057;-78
2022/11/18 03:42:46;;;;;;;27.73;20.17;;;;;;;;;;5030521;28;20127;-78
2022/11/18 03:45:32;;;;;;;27.40;20.20;;;;;;;;;;5035304;28;20475;-79
2022/11/18 03:48:00;;;;;;;26.70;20.08;;;;;;;;;;5048867;28;20132;-79
2022/11/18 03:50:29;;;;;;;29.02;21.33;;;;;;;;;;5049162;28;20070;-78
2022/11/18 03:52:55;;;;;;;26.95;21.15;;;;;;;;;;5029052;28;20033;-78
2022/11/18 03:55:23;;;;;;;27.75;20.88;;;;;;;;;;5050537;28;20045;-78
2022/11/18 03:57:53;;;;;;;29.67;21.10;;;;;;;;;;5047187;28;20064;-78
2022/11/18 04:00:20;;;;;;;26.52;20.17;;;;;;;;;;5032466;28;20238;-78
2022/11/18 04:02:47;;;;;;;30.45;20.67;;;;;;;;;;5032181;28;20049;-79
2022/11/18 04:05:14;;;;;;;31.63;22.38;;;;;;;;;;5050866;28;20079;-78
2022/11/18 04:07:50;;;;;;;32.47;21.85;;;;;;;;;;5048983;28;20131;-78
2022/11/18 04:10:18;;;;;;;29.02;21.60;;;;;;;;;;5029291;28;20045;-78
2022/11/18 04:13:07;;;;;;;34.40;22.95;;;;;;;;;;5032497;28;20041;-78
2022/11/18 04:15:37;;;;;;;30.20;21.17;;;;;;;;;;5025561;28;20527;-78
2022/11/18 04:18:03;;;;;;;33.95;22.70;;;;;;;;;;5030844;28;20060;-78
2022/11/18 04:20:30;;;;;;;34.25;23.20;;;;;;;;;;5052175;28;20493;-78
2022/11/18 04:22:56;;;;;;;29.55;22.40;;;;;;;;;;5046655;28;20077;-78
2022/11/18 04:25:25;;;;;;;32.35;22.50;;;;;;;;;;5051019;28;20048;-78
2022/11/18 04:27:51;;;;;;;34.90;23.40;;;;;;;;;;5050157;28;20120;-78
2022/11/18 04:30:18;;;;;;;33.45;23.95;;;;;;;;;;5034160;28;20128;-78
2022/11/18 04:32:44;;;;;;;31.70;22.35;;;;;;;;;;5031360;28;20046;-79
2022/11/18 04:35:10;;;;;;;33.65;22.77;;;;;;;;;;5034275;28;20477;-78
2022/11/18 04:37:38;;;;;;;33.65;23.35;;;;;;;;;;5048602;28;20489;-78
2022/11/18 04:40:04;;;;;;;33.53;22.65;;;;;;;;;;5032748;28;20103;-78
2022/11/18 04:42:30;;;;;;;35.05;24.85;;;;;;;;;;5047323;28;20086;-78
2022/11/18 04:44:56;;;;;;;32.83;23.00;;;;;;;;;;5032471;28;20033;-78
2022/11/18 04:47:22;;;;;;;34.30;24.15;;;;;;;;;;5048213;28;20041;-78
2022/11/18 04:49:48;;;;;;;35.20;24.90;;;;;;;;;;5031124;28;20378;-78
2022/11/18 04:52:14;;;;;;;37.58;24.63;;;;;;;;;;5051718;28;20048;-78
2022/11/18 04:54:40;;;;;;;31.60;23.50;;;;;;;;;;5048150;28;20513;-78
2022/11/18 04:57:06;;;;;;;31.02;22.63;;;;;;;;;;5066542;28;20045;-78
2022/11/18 04:59:32;;;;;;;35.00;24.13;;;;;;;;;;5046987;28;20130;-78
2022/11/18 05:01:59;;;;;;;36.85;24.38;;;;;;;;;;5047983;28;20049;-78
2022/11/18 05:04:27;;;;;;;34.72;25.05;;;;;;;;;;5050826;28;20414;-78
2022/11/18 05:06:53;;;;;;;32.35;23.15;;;;;;;;;;5029004;28;20069;-78
2022/11/18 05:09:20;;;;;;;36.20;24.65;;;;;;;;;;5046471;28;20103;-78
2022/11/18 05:14:30;;;;;;;32.60;24.00;;;;;;;;;;5030420;28;20488;-78
2022/11/18 05:16:57;;;;;;;35.22;24.83;;;;;;;;;;5044795;28;20135;-78
2022/11/18 05:19:23;;;;;;;37.80;24.10;;;;;;;;;;5030953;28;20504;-78
2022/11/18 05:21:49;;;;;;;35.55;25.02;;;;;;;;;;5032185;28;20048;-78
2022/11/18 05:24:15;;;;;;;35.83;24.38;;;;;;;;;;5045103;28;20060;-78
2022/11/18 05:26:42;;;;;;;32.95;23.67;;;;;;;;;;5032057;28;20047;-79
2022/11/18 05:29:08;;;;;;;36.60;24.23;;;;;;;;;;5031839;28;20040;-78
2022/11/18 05:31:34;;;;;;;36.22;25.67;;;;;;;;;;5042900;28;20037;-79
2022/11/18 05:34:00;;;;;;;33.10;24.20;;;;;;;;;;5029003;28;20053;-79
2022/11/18 05:36:26;;;;;;;35.63;24.67;;;;;;;;;;5049116;28;20064;-79
2022/11/18 05:38:52;;;;;;;35.35;23.95;;;;;;;;;;5048077;28;20045;-78
2022/11/18 05:44:04;;;;;;;33.17;25.17;;;;;;;;;;5048375;28;20497;-78
2022/11/18 05:46:30;;;;;;;31.70;23.92;;;;;;;;;;5049782;28;20045;-79
2022/11/18 05:48:56;;;;;;;36.50;25.25;;;;;;;;;;5060241;28;20037;-79
2022/11/18 05:51:22;;;;;;;34.03;23.27;;;;;;;;;;5030971;28;20435;-79
2022/11/18 05:53:50;;;;;;;33.00;24.17;;;;;;;;;;5031070;28;20886;-78
2022/11/18 05:56:16;;;;;;;33.60;24.23;;;;;;;;;;5031754;28;20080;-79
2022/11/18 05:58:42;;;;;;;32.30;23.33;;;;;;;;;;5047668;28;20083;-78
2022/11/18 06:01:08;;;;;;;32.70;24.33;;;;;;;;;;5026647;28;20071;-78
2022/11/18 06:03:36;;;;;;;35.58;24.90;;;;;;;;;;5027969;28;20049;-79
2022/11/18 06:06:03;;;;;;;31.08;24.48;;;;;;;;;;5048569;28;20044;-78
2022/11/18 06:08:32;;;;;;;34.53;23.35;;;;;;;;;;5028803;28;20064;-78
2022/11/18 06:10:58;;;;;;;32.25;22.85;;;;;;;;;;5029240;28;20037;-78
2022/11/18 06:13:34;;;;;;;28.83;21.95;;;;;;;;;;5049615;28;20041;-78
2022/11/18 06:16:00;;;;;;;33.58;22.92;;;;;;;;;;5033568;28;20041;-78
2022/11/18 06:18:33;;;;;;;35.70;24.42;;;;;;;;;;5047589;28;20095;-79
2022/11/18 06:21:04;;;;;;;37.63;24.77;;;;;;;;;;5043439;28;20037;-79
2022/11/18 06:23:32;;;;;;;34.92;23.75;;;;;;;;;;5029723;28;20319;-78
2022/11/18 06:25:58;;;;;;;36.97;25.75;;;;;;;;;;5026891;28;20041;-78
2022/11/18 06:28:24;;;;;;;37.80;25.13;;;;;;;;;;5048193;28;20045;-78
2022/11/18 06:30:50;;;;;;;33.88;22.58;;;;;;;;;;5029115;28;20051;-79
2022/11/18 06:33:16;;;;;;;33.38;24.83;;;;;;;;;;5021424;28;20037;-78
2022/11/18 06:35:42;;;;;;;32.63;23.83;;;;;;;;;;5027997;28;20048;-79
2022/11/18 06:38:08;;;;;;;34.78;25.05;;;;;;;;;;5028499;28;20049;-80
2022/11/18 06:40:36;;;;;;;31.20;22.98;;;;;;;;;;5023000;28;20056;-79
2022/11/18 06:48:35;;;;;;;34.80;24.13;;;;;;;;;;5047632;28;20136;-79
2022/11/18 06:51:04;;;;;;;28.33;20.75;;;;;;;;;;5033010;28;20139;-78
2022/11/18 06:53:30;;;;;;;33.17;24.15;;;;;;;;;;5045310;28;20121;-79
2022/11/18 06:55:56;;;;;;;32.03;22.80;;;;;;;;;;5049992;28;20471;-78
2022/11/18 06:58:22;;;;;;;34.97;23.88;;;;;;;;;;5033000;28;20082;-78
2022/11/18 07:00:48;;;;;;;33.60;23.35;;;;;;;;;;5040854;28;20045;-78
2022/11/18 07:03:14;;;;;;;32.15;24.00;;;;;;;;;;5031193;28;20037;-78
2022/11/18 07:05:40;;;;;;;29.95;22.25;;;;;;;;;;5062893;28;20057;-79
2022/11/18 07:08:06;;;;;;;33.15;23.38;;;;;;;;;;5046703;28;20089;-79
2022/11/18 07:10:32;;;;;;;32.97;23.40;;;;;;;;;;5048505;28;20083;-78
2022/11/18 07:12:58;;;;;;;31.67;22.85;;;;;;;;;;5047110;28;20080;-79
2022/11/18 07:15:24;;;;;;;32.55;23.42;;;;;;;;;;5044017;28;20141;-78
2022/11/18 07:17:50;;;;;;;29.63;23.08;;;;;;;;;;5049710;28;20546;-77
2022/11/18 07:20:16;;;;;;;35.42;26.35;;;;;;;;;;5052120;28;20132;-77
2022/11/18 07:22:42;;;;;;;29.67;22.45;;;;;;;;;;5051312;28;20132;-78
2022/11/18 07:25:08;;;;;;;31.40;23.80;;;;;;;;;;5035563;28;20155;-77
2022/11/18 07:27:34;;;;;;;28.48;21.23;;;;;;;;;;5068560;28;20390;-77
2022/11/18 07:30:00;;;;;;;30.45;22.05;;;;;;;;;;5036390;28;20045;-78
2022/11/18 07:32:26;;;;;;;28.95;22.17;;;;;;;;;;5033402;28;20481;-77
2022/11/18 07:34:52;;;;;;;32.15;22.13;;;;;;;;;;5051894;28;20055;-78
2022/11/18 07:37:18;;;;;;;31.75;22.58;;;;;;;;;;5034628;28;20049;-77
2022/11/18 07:39:44;;;;;;;30.02;22.42;;;;;;;;;;5034474;28;20408;-77
2022/11/18 07:42:10;;;;;;;31.50;21.88;;;;;;;;;;5067661;28;20084;-77
2022/11/18 07:44:36;;;;;;;27.90;20.63;;;;;;;;;;5034909;28;20072;-78
2022/11/18 07:47:02;;;;;;;31.67;23.17;;;;;;;;;;5035087;28;20460;-77
2022/11/18 07:49:28;;;;;;;28.05;21.05;;;;;;;;;;5034063;28;20045;-77
2022/11/18 07:51:54;;;;;;;27.92;20.10;;;;;;;;;;5029600;28;20040;-77
2022/11/18 07:54:20;;;;;;;28.02;20.40;;;;;;;;;;5034018;28;20048;-77
2022/11/18 07:56:48;;;;;;;29.70;20.38;;;;;;;;;;5031682;28;20045;-77
2022/11/18 07:59:14;;;;;;;30.40;21.70;;;;;;;;;;5048887;28;20052;-77
2022/11/18 08:01:40;;;;;;;30.33;21.80;;;;;;;;;;5032534;28;20041;-77
2022/11/18 08:04:08;;;;;;;28.98;21.88;;;;;;;;;;5052538;28;20045;-77
2022/11/18 08:06:37;;;;;;;29.35;21.27;;;;;;;;;;5046375;28;20044;-77
2022/11/18 08:09:03;;;;;;;27.05;20.23;;;;;;;;;;5035628;28;20057;-77
2022/11/18 08:11:29;;;;;;;29.55;21.25;;;;;;;;;;5052726;28;20370;-77
2022/11/18 08:13:55;;;;;;;29.58;19.90;;;;;;;;;;5028562;28;20056;-77
2022/11/18 08:16:23;;;;;;;28.60;20.30;;;;;;;;;;5052931;28;20072;-77
2022/11/18 08:18:49;;;;;;;27.73;19.65;;;;;;;;;;5052396;28;20147;-77
2022/11/18 08:21:17;;;;;;;28.83;20.90;;;;;;;;;;5053404;28;20044;-77
2022/11/18 08:23:43;;;;;;;27.20;19.35;;;;;;;;;;5051138;28;20131;-77
2022/11/18 08:26:12;;;;;;;25.42;19.83;;;;;;;;;;5035465;28;20489;-77
2022/11/18 08:28:38;;;;;;;31.67;21.42;;;;;;;;;;5052428;28;20076;-77
2022/11/18 08:31:18;;;;;;;30.08;21.30;;;;;;;;;;5033610;28;20041;-77
2022/11/18 08:33:44;;;;;;;27.08;20.60;;;;;;;;;;5052199;28;20041;-77
2022/11/18 08:36:18;;;;;;;31.50;20.58;;;;;;;;;;5062717;28;20400;-77
2022/11/18 08:38:44;;;;;;;;;;;;;;;;;;5031860;28;20528;-77
2022/11/18 08:41:11;;;;;;;29.27;19.13;;;;;;;;;;5063378;28;19921;-77
2022/11/18 08:43:37;;;;;;;28.17;19.88;;;;;;;;;;5033589;28;20507;-77
2022/11/18 08:46:03;;;;;;;27.30;19.42;;;;;;;;;;5033068;28;20099;-77
2022/11/18 08:48:29;;;;;;;26.70;20.35;;;;;;;;;;5050770;28;20090;-77
2022/11/18 08:50:56;;;;;;;27.73;20.63;;;;;;;;;;5033219;28;20029;-78
2022/11/18 08:53:22;;;;;;;25.92;19.27;;;;;;;;;;5049553;28;20039;-77
2022/11/18 08:55:54;;;;;;;30.08;20.95;;;;;;;;;;5050416;28;20124;-77
2022/11/18 08:58:22;;;;;;;32.90;20.80;;;;;;;;;;5050599;28;20123;-77
2022/11/18 09:00:48;;;;;;;30.23;20.30;;;;;;;;;;5051131;28;20048;-77
2022/11/18 09:03:14;;;;;;;28.48;19.85;;;;;;;;;;5029624;28;20772;-77
2022/11/18 09:05:40;;;;;;;28.15;20.17;;;;;;;;;;5045823;28;20041;-78
2022/11/18 09:08:06;;;;;;;28.83;20.30;;;;;;;;;;5029816;28;20392;-77
2022/11/18 09:10:33;;;;;;;27.90;20.67;;;;;;;;;;5030285;28;20041;-77
2022/11/18 09:12:59;;;;;;;30.52;21.25;;;;;;;;;;5050657;28;20048;-77
2022/11/18 09:15:28;;;;;;;29.85;20.70;;;;;;;;;;5066727;28;20127;-77
2022/11/18 09:17:54;;;;;;;30.10;21.17;;;;;;;;;;5052441;28;20063;-77
2022/11/18 09:20:20;;;;;;;29.02;20.95;;;;;;;;;;5029672;28;20412;-78
2022/11/18 09:22:46;;;;;;;31.95;21.45;;;;;;;;;;5033618;28;20079;-77
2022/11/18 09:25:12;;;;;;;31.60;20.92;;;;;;;;;;5032938;28;20041;-80
2022/11/18 09:27:38;;;;;;;28.77;19.60;;;;;;;;;;5030664;28;20053;-78
2022/11/18 09:30:05;;;;;;;29.20;21.30;;;;;;;;;;5050491;28;20068;-77
2022/11/18 09:32:32;;;;;;;28.30;19.35;;;;;;;;;;5048626;28;20045;-78
2022/11/18 09:34:58;;;;;;;25.77;17.02;;;;;;;;;;5030978;28;20439;-78
2022/11/18 09:37:24;;;;;;;28.13;19.33;;;;;;;;;;5032585;28;20052;-78
2022/11/18 09:39:50;;;;;;;27.80;18.83;;;;;;;;;;5048628;28;20319;-78
2022/11/18 09:42:16;;;;;;;22.50;15.32;;;;;;;;;;5050723;28;20037;-78
2022/11/18 09:44:52;;;;;;;24.83;16.52;;;;;;;;;;5050852;28;20142;-78
2022/11/18 09:47:32;;;;;;;30.08;18.05;;;;;;;;;;5028158;28;20103;-78
2022/11/18 09:49:59;;;;;;;24.10;16.30;;;;;;;;;;5050085;28;20044;-78
2022/11/18 09:52:36;;;;;;;27.55;17.92;;;;;;;;;;5059884;28;20049;-78
2022/11/18 09:55:04;;;;;;;25.88;17.00;;;;;;;;;;5044274;28;20037;-78
2022/11/18 09:57:41;;;;;;;22.33;15.43;;;;;;;;;;5023879;28;20114;-78
2022/11/18 10:00:15;;;;;;;25.65;16.83;;;;;;;;;;5045978;28;20160;-79
2022/11/18 10:02:47;;;;;;;21.33;15.27;;;;;;;;;;5041025;28;20048;-78
2022/11/18 10:05:15;;;;;;;21.38;15.25;;;;;;;;;;5049335;28;20044;-77
2022/11/18 10:07:47;;;;;;;21.17;14.25;;;;;;;;;;5028233;28;20049;-79
2022/11/18 10:10:16;;;;;;;18.88;14.57;;;;;;;;;;5049287;28;20086;-77
2022/11/18 10:12:49;;;;;;;22.60;15.20;;;;;;;;;;5046289;28;20036;-78
2022/11/18 10:15:15;;;;;;;20.70;14.18;;;;;;;;;;5032839;28;20048;-77
2022/11/18 10:17:42;;;;;;;22.63;14.70;;;;;;;;;;5030189;28;20102;-79
2022/11/18 10:20:11;;;;;;;21.70;15.73;;;;;;;;;;5030084;28;20480;-78
2022/11/18 10:22:56;;;;;;;20.67;14.82;;;;;;;;;;5031587;28;20049;-77
2022/11/18 10:25:22;;;;;;;19.30;14.52;;;;;;;;;;5030691;28;20055;-78
2022/11/18 10:27:49;;;;;;;22.27;14.30;;;;;;;;;;5030341;28;20110;-78
2022/11/18 10:30:26;;;;;;;21.58;14.55;;;;;;;;;;5030304;28;20079;-78
2022/11/18 10:32:57;;;;;;;22.13;14.40;;;;;;;;;;5028183;28;20398;-78
2022/11/18 10:35:24;;;;;;;21.40;14.63;;;;;;;;;;5030750;28;20049;-78
2022/11/18 10:38:02;;;;;;;20.63;14.45;;;;;;;;;;5025812;28;20057;-78
2022/11/18 10:40:29;;;;;;;24.50;15.43;;;;;;;;;;5049863;28;20374;-78
2022/11/18 10:42:55;;;;;;;20.23;14.07;;;;;;;;;;5030255;28;20045;-78
2022/11/18 10:45:29;;;;;;;20.67;14.98;;;;;;;;;;5046713;28;20045;-78
2022/11/18 10:48:09;;;;;;;21.27;14.27;;;;;;;;;;5055832;28;20053;-78
2022/11/18 10:50:39;;;;;;;23.08;15.50;;;;;;;;;;5041084;28;20045;-78
2022/11/18 10:53:06;;;;;;;23.73;15.45;;;;;;;;;;5025052;28;20067;-78
2022/11/18 10:55:33;;;;;;;20.63;14.57;;;;;;;;;;5047818;28;20037;-78
2022/11/18 10:58:07;;;;;;;22.10;15.77;;;;;;;;;;5036722;28;20048;-77
2022/11/18 11:00:33;;;;;;;21.83;14.65;;;;;;;;;;5054085;28;20087;-78
2022/11/18 11:02:59;;;;;;;18.92;14.95;;;;;;;;;;5048550;28;20048;-78
2022/11/18 11:05:26;;;;;;;19.40;14.50;;;;;;;;;;5043576;28;20041;-78
2022/11/18 11:08:02;;;;;;;32.10;28.83;;;;;;;;;;5046021;28;20051;-79
2022/11/18 11:10:28;;;;;;;21.45;15.23;;;;;;;;;;5064345;28;20051;-78
2022/11/18 11:12:57;;;;;;;21.67;14.82;;;;;;;;;;5034507;28;20092;-79
2022/11/18 11:15:31;;;;;;;23.75;15.85;;;;;;;;;;5050079;28;20047;-78
2022/11/18 11:20:44;;;;;;;20.80;13.48;;;;;;;;;;5065598;28;20053;-78
2022/11/18 11:23:10;;;;;;;20.73;13.48;;;;;;;;;;5047641;28;20175;-79
2022/11/18 11:25:36;;;;;;;19.02;14.07;;;;;;;;;;5033913;28;20959;-79
2022/11/18 11:28:11;;;;;;;18.92;13.60;;;;;;;;;;5036243;28;20049;-78
2022/11/18 11:30:45;;;;;;;20.52;13.95;;;;;;;;;;5032537;28;20485;-78
2022/11/18 11:33:39;;;;;;;20.17;13.70;;;;;;;;;;5035193;28;20059;-78
2022/11/18 11:36:12;;;;;;;21.02;14.27;;;;;;;;;;5052913;28;20052;-79
2022/11/18 11:38:39;;;;;;;18.52;14.23;;;;;;;;;;5035751;28;20058;-79
2022/11/18 11:41:21;;;;;;;18.85;13.13;;;;;;;;;;5027786;28;20416;-78
2022/11/18 11:43:47;;;;;;;18.20;14.05;;;;;;;;;;5034489;28;20051;-79
2022/11/18 11:46:16;;;;;;;17.40;12.55;;;;;;;;;;5034455;28;20033;-79
2022/11/18 11:48:48;;;;;;;16.60;12.40;;;;;;;;;;5029656;28;20519;-78
2022/11/18 11:51:25;;;;;;;17.92;12.73;;;;;;;;;;5034204;28;20134;-78
2022/11/18 11:54:00;;;;;;;18.00;12.35;;;;;;;;;;5051998;28;20146;-78
2022/11/18 11:56:26;;;;;;;16.27;11.43;;;;;;;;;;5033182;28;20070;-78
2022/11/18 11:59:01;;;;;;;18.83;12.23;;;;;;;;;;5034244;28;20551;-79
2022/11/18 12:01:38;;;;;;;16.85;11.02;;;;;;;;;;5052235;28;20041;-78
2022/11/18 12:04:03;;;;;;;18.10;12.82;;;;;;;;;;5050088;28;20095;-78
2022/11/18 12:06:30;;;;;;;17.38;12.98;;;;;;;;;;5033132;28;20037;-78
2022/11/18 12:09:00;;;;;;;18.55;11.90;;;;;;;;;;5033871;28;20052;-79
2022/11/18 12:11:32;;;;;;;17.35;13.40;;;;;;;;;;5032718;28;20041;-79
2022/11/18 12:14:15;;;;;;;18.77;13.07;;;;;;;;;;5032150;28;20049;-78
2022/11/18 12:16:44;;;;;;;16.55;13.25;;;;;;;;;;5050378;28;20084;-78
2022/11/18 12:19:12;;;;;;;20.15;14.02;;;;;;;;;;5033466;28;20041;-79
2022/11/18 12:21:44;;;;;;;22.08;16.30;;;;;;;;;;5032107;28;20518;-79
2022/11/18 12:24:20;;;;;;;17.80;12.65;;;;;;;;;;5031747;28;20481;-79
2022/11/18 12:26:47;;;;;;;15.70;11.75;;;;;;;;;;5032831;28;20041;-78
2022/11/18 12:29:16;;;;;;;17.13;12.40;;;;;;;;;;5042480;28;20041;-79
2022/11/18 12:31:42;;;;;;;16.48;11.77;;;;;;;;;;5049736;28;20396;-79
2022/11/18 12:34:19;;;;;;;21.40;15.60;;;;;;;;;;5033192;28;20124;-78
2022/11/18 12:36:46;;;;;;;19.00;13.13;;;;;;;;;;5049982;28;20728;-78
2022/11/18 12:39:24;;;;;;;16.92;11.93;;;;;;;;;;5052863;28;20048;-78
2022/11/18 12:44:43;;;;;;;15.48;11.13;;;;;;;;;;5025568;28;20053;-79
2022/11/18 12:47:12;;;;;;;16.38;11.23;;;;;;;;;;5032388;28;20041;-79
2022/11/18 12:49:44;;;;;;;15.50;11.15;;;;;;;;;;5030305;28;20049;-79
2022/11/18 12:52:29;;;;;;;13.18;10.32;;;;;;;;;;5047381;28;20040;-78
2022/11/18 12:55:00;;;;;;;16.08;11.23;;;;;;;;;;5033572;28;20080;-78
2022/11/18 12:57:29;;;;;;;16.50;11.07;;;;;;;;;;5032742;28;20059;-78
2022/11/18 12:59:55;;;;;;;14.73;10.63;;;;;;;;;;5031836;28;20118;-78
2022/11/18 13:02:21;;;;;;;17.42;11.45;;;;;;;;;;5049403;28;20559;-78
2022/11/18 13:05:03;;;;;;;16.83;12.30;;;;;;;;;;5049735;28;20048;-79
2022/11/18 13:10:21;;;;;;;13.50;10.07;;;;;;;;;;5060944;28;20052;-78
2022/11/18 13:12:48;;;;;;;16.38;10.98;;;;;;;;;;5033244;28;20063;-79
2022/11/18 13:18:26;;;;;;;15.57;10.73;;;;;;;;;;5033500;28;20072;-78
2022/11/18 13:23:50;;;;;;;15.98;10.95;;;;;;;;;;5046337;28;20053;-78
2022/11/18 13:23:51;;;;;;;13.95;10.15;;;;;;;;;;5033403;28;20451;-78
2022/11/18 13:26:25;;;;;;;15.70;10.02;;;;;;;;;;5050624;28;20398;-81
2022/11/18 13:28:57;;;;;;;14.65;11.25;;;;;;;;;;5030642;28;20049;-79
2022/11/18 13:31:26;;;;;;;15.18;11.02;;;;;;;;;;5032476;28;20039;-79
2022/11/18 13:33:53;;;;;;;14.60;10.77;;;;;;;;;;5047748;28;20048;-78
2022/11/18 13:36:20;;;;;;;13.05;9.63;;;;;;;;;;5032695;28;20398;-79
2022/11/18 13:39:00;;;;;;;15.93;10.77;;;;;;;;;;5031094;28;20064;-78
2022/11/18 13:41:31;;;;;;;17.85;12.48;;;;;;;;;;5031626;28;20041;-79
2022/11/18 13:44:16;;;;;;;14.65;9.77;;;;;;;;;;5050128;28;20076;-79
2022/11/18 13:46:42;;;;;;;14.23;10.45;;;;;;;;;;5032086;28;20055;-79
2022/11/18 13:49:13;;;;;;;16.23;11.98;;;;;;;;;;5029883;28;20037;-79
2022/11/18 13:51:39;;;;;;;14.00;10.98;;;;;;;;;;5032823;28;20045;-79
2022/11/18 13:54:05;;;;;;;13.90;9.40;;;;;;;;;;5046214;28;20485;-78
2022/11/18 13:56:32;;;;;;;13.75;9.27;;;;;;;;;;5050741;28;20047;-78
2022/11/18 13:59:00;;;;;;;12.32;9.70;;;;;;;;;;5064121;28;20485;-79
2022/11/18 14:01:34;;;;;;;15.68;9.85;;;;;;;;;;5049693;28;20467;-78
2022/11/18 14:04:00;;;;;;;13.55;10.45;;;;;;;;;;5047709;28;20049;-79
2022/11/18 14:06:26;;;;;;;13.77;9.80;;;;;;;;;;5032237;28;20091;-78
2022/11/18 14:09:03;;;;;;;14.45;8.80;;;;;;;;;;5029894;28;20139;-78
2022/11/18 14:11:42;;;;;;;15.90;10.55;;;;;;;;;;5028570;28;20044;-78
2022/11/18 14:14:10;;;;;;;15.13;10.65;;;;;;;;;;5065077;28;20388;-79
2022/11/18 14:16:37;;;;;;;16.73;11.07;;;;;;;;;;5032359;28;20057;-79
2022/11/18 14:19:04;;;;;;;14.13;10.18;;;;;;;;;;5032331;28;20049;-79
2022/11/18 14:21:31;;;;;;;16.83;10.82;;;;;;;;;;5031661;28;20068;-78
2022/11/18 14:23:57;;;;;;;14.73;10.95;;;;;;;;;;5030363;28;20091;-79
2022/11/18 14:26:34;;;;;;;16.25;11.50;;;;;;;;;;5032319;28;20139;-79
2022/11/18 14:29:02;;;;;;;15.30;11.13;;;;;;;;;;5064005;28;20057;-78
2022/11/18 14:31:29;;;;;;;15.63;9.77;;;;;;;;;;5030826;28;20082;-79
2022/11/18 14:34:14;;;;;;;16.90;10.80;;;;;;;;;;5049201;28;20507;-79
2022/11/18 14:36:40;;;;;;;15.02;10.70;;;;;;;;;;5049323;28;20504;-78
2022/11/18 14:39:12;;;;;;;14.57;10.68;;;;;;;;;;5031363;28;20045;-78
2022/11/18 14:41:47;;;;;;;15.30;9.80;;;;;;;;;;5031213;28;20136;-78
2022/11/18 14:44:14;;;;;;;13.00;9.43;;;;;;;;;;5048740;28;20433;-79
2022/11/18 14:46:42;;;;;;;15.10;10.20;;;;;;;;;;5027301;28;20068;-79
2022/11/18 14:49:18;;;;;;;13.57;8.55;;;;;;;;;;5065581;28;20118;-79
2022/11/18 14:51:44;;;;;;;15.65;10.43;;;;;;;;;;5030259;28;20048;-78
2022/11/18 14:54:18;;;;;;;14.85;10.50;;;;;;;;;;5062409;28;20044;-79
2022/11/18 14:56:49;;;;;;;15.18;11.20;;;;;;;;;;5024173;28;20063;-78
2022/11/18 14:59:16;;;;;;;15.60;10.45;;;;;;;;;;5049632;28;20041;-78